createdAt,value
2019-02-08T00:01:43.085Z,26.70
2019-02-08T00:04:20.359Z,27.80
2019-02-08T00:06:54.339Z,27.10
2019-02-08T00:09:29.534Z,28.17
2019-02-08T00:12:07.449Z,27.13
2019-02-08T00:14:42.149Z,27.47
2019-02-08T00:17:15.335Z,27.97
2019-02-08T00:20:06.801Z,26.43
2019-02-08T00:22:39.636Z,28.93
2019-02-08T00:25:15.829Z,27.63
2019-02-08T00:27:48.513Z,28.00
2019-02-08T00:30:22.466Z,28.43
2019-02-08T00:32:54.060Z,26.73
2019-02-08T00:35:24.814Z,27.73
2019-02-08T00:37:55.720Z,28.73
2019-02-08T00:40:28.736Z,27.40
2019-02-08T00:43:00.850Z,26.83
2019-02-08T00:45:36.473Z,29.07
2019-02-08T00:48:10.774Z,28.73
2019-02-08T00:50:44.231Z,27.87
2019-02-08T00:53:18.993Z,26.87
2019-02-08T00:55:54.927Z,27.37
2019-02-08T00:58:29.167Z,26.97
2019-02-08T01:01:00.427Z,26.73
2019-02-08T01:03:40.720Z,28.33
2019-02-08T01:06:14.599Z,28.70
2019-02-08T01:08:47.396Z,27.63
2019-02-08T01:11:20.861Z,28.03
2019-02-08T01:13:54.521Z,26.70
2019-02-08T01:16:30.949Z,28.40
2019-02-08T01:19:01.423Z,29.10
2019-02-08T01:21:33.320Z,26.30
2019-02-08T01:24:08.871Z,29.10
2019-02-08T01:26:54.979Z,28.73
2019-02-08T01:29:25.780Z,28.10
2019-02-08T01:31:56.892Z,29.10
2019-02-08T01:34:34.575Z,31.40
2019-02-08T01:37:07.810Z,34.80
2019-02-08T01:39:42.079Z,32.93
2019-02-08T01:42:12.720Z,34.60
2019-02-08T01:44:44.414Z,34.80
2019-02-08T01:47:17.810Z,34.50
2019-02-08T01:49:50.929Z,35.87
2019-02-08T01:52:24.850Z,32.40
2019-02-08T01:54:59.992Z,33.87
2019-02-08T01:57:30.480Z,33.87
2019-02-08T02:00:04.004Z,34.67
2019-02-08T02:02:35.909Z,31.93
2019-02-08T02:05:10.824Z,32.27
2019-02-08T02:07:42.637Z,35.70
2019-02-08T02:10:37.868Z,34.40
2019-02-08T02:13:13.282Z,35.50
2019-02-08T02:15:51.810Z,37.37
2019-02-08T02:18:23.040Z,35.87
2019-02-08T02:20:54.508Z,36.07
2019-02-08T02:23:25.061Z,36.07
2019-02-08T02:25:56.488Z,35.30
2019-02-08T02:28:28.681Z,38.70
2019-02-08T02:31:02.003Z,37.73
2019-02-08T02:33:36.415Z,37.87
2019-02-08T02:36:09.094Z,37.10
2019-02-08T02:38:42.342Z,36.80
2019-02-08T02:41:14.255Z,37.37
2019-02-08T02:43:50.100Z,36.50
2019-02-08T02:46:23.358Z,38.50
2019-02-08T02:48:57.578Z,38.10
2019-02-08T02:51:29.703Z,37.10
2019-02-08T02:54:04.822Z,39.47
2019-02-08T02:56:35.329Z,39.87
2019-02-08T02:59:08.277Z,39.23
2019-02-08T03:01:39.090Z,39.30
2019-02-08T03:04:11.053Z,38.30
2019-02-08T03:06:42.091Z,39.90
2019-02-08T03:09:31.413Z,38.00
2019-02-08T03:12:14.085Z,38.37
2019-02-08T03:14:46.250Z,35.47
2019-02-08T03:17:19.878Z,39.10
2019-02-08T03:20:11.522Z,39.00
2019-02-08T03:22:43.951Z,37.93
2019-02-08T03:25:21.829Z,39.70
2019-02-08T03:27:56.545Z,40.87
2019-02-08T03:30:32.715Z,40.30
2019-02-08T03:33:04.445Z,39.03
2019-02-08T03:35:35.411Z,40.30
2019-02-08T03:38:06.321Z,40.07
2019-02-08T03:40:52.160Z,40.57
2019-02-08T03:43:25.178Z,40.80
2019-02-08T03:45:57.564Z,42.10
2019-02-08T03:48:28.264Z,41.50
2019-02-08T03:51:01.129Z,40.97
2019-02-08T03:53:34.354Z,41.40
2019-02-08T03:56:07.411Z,40.40
2019-02-08T03:58:41.443Z,41.33
2019-02-08T04:01:14.864Z,43.00
2019-02-08T04:03:48.812Z,42.80
2019-02-08T04:06:21.923Z,43.00
2019-02-08T04:08:56.095Z,43.70
2019-02-08T04:11:30.785Z,42.17
2019-02-08T04:14:06.980Z,44.23
2019-02-08T04:16:39.566Z,43.30
2019-02-08T04:19:10.484Z,41.70
2019-02-08T04:21:44.373Z,44.97
2019-02-08T04:24:17.243Z,44.70
2019-02-08T04:26:53.563Z,42.10
2019-02-08T04:29:28.255Z,43.57
2019-02-08T04:32:02.697Z,43.33
2019-02-08T04:34:39.581Z,41.47
2019-02-08T04:37:15.289Z,45.30
2019-02-08T04:40:04.200Z,43.40
2019-02-08T04:42:34.704Z,45.00
2019-02-08T04:45:06.163Z,43.73
2019-02-08T04:47:38.864Z,41.20
2019-02-08T04:50:21.058Z,36.83
2019-02-08T04:52:55.874Z,34.07
2019-02-08T04:55:33.439Z,34.63
2019-02-08T04:58:05.874Z,31.33
2019-02-08T05:00:37.114Z,32.50
2019-02-08T05:03:26.437Z,29.30
2019-02-08T05:05:58.448Z,30.03
2019-02-08T05:08:29.379Z,28.47
2019-02-08T05:11:06.624Z,29.17
2019-02-08T05:13:41.990Z,27.90
2019-02-08T05:16:16.925Z,26.80
2019-02-08T05:18:50.142Z,30.00
2019-02-08T05:21:39.434Z,26.60
2019-02-08T05:24:28.695Z,25.60
2019-02-08T05:27:03.954Z,26.33
2019-02-08T05:29:36.855Z,26.10
2019-02-08T05:32:09.485Z,26.53
2019-02-08T05:34:44.220Z,27.30
2019-02-08T05:37:14.745Z,26.93
2019-02-08T05:39:48.550Z,25.60
2019-02-08T05:42:20.648Z,25.80
2019-02-08T05:44:52.721Z,24.60
2019-02-08T05:47:24.960Z,25.07
2019-02-08T05:49:58.962Z,22.73
2019-02-08T05:52:34.403Z,23.03
2019-02-08T05:55:20.790Z,22.20
2019-02-08T05:57:51.707Z,20.50
2019-02-08T06:00:40.951Z,19.90
2019-02-08T06:03:18.804Z,20.07
2019-02-08T06:05:52.408Z,18.00
2019-02-08T06:08:27.448Z,18.53
2019-02-08T06:11:05.159Z,17.90
2019-02-08T06:13:36.542Z,16.43
2019-02-08T06:16:09.105Z,17.40
2019-02-08T06:18:40.054Z,16.37
2019-02-08T06:21:13.056Z,15.90
2019-02-08T06:23:46.281Z,15.23
2019-02-08T06:26:19.661Z,15.57
2019-02-08T06:28:52.966Z,14.07
2019-02-08T06:31:27.143Z,14.80
2019-02-08T06:33:59.922Z,15.10
2019-02-08T06:36:32.161Z,13.40
2019-02-08T06:39:09.485Z,14.43
2019-02-08T06:41:39.971Z,14.13
2019-02-08T06:44:15.280Z,13.30
2019-02-08T06:46:52.349Z,14.47
2019-02-08T06:49:24.236Z,12.60
2019-02-08T06:51:55.437Z,12.57
2019-02-08T06:54:27.738Z,12.23
2019-02-08T06:57:31.547Z,13.70
2019-02-08T07:00:09.355Z,14.17
2019-02-08T07:03:08.139Z,14.17
2019-02-08T07:06:14.464Z,13.20
2019-02-08T07:08:57.411Z,13.30
2019-02-08T07:11:46.884Z,11.83
2019-02-08T07:14:46.800Z,13.43
2019-02-08T07:17:38.856Z,12.57
2019-02-08T07:20:33.965Z,14.13
2019-02-08T07:23:32.325Z,13.90
2019-02-08T07:26:22.508Z,13.50
2019-02-08T07:29:22.139Z,14.07
2019-02-08T07:32:24.143Z,12.60
2019-02-08T07:35:25.380Z,13.60
2019-02-08T07:38:20.088Z,12.87
2019-02-08T07:41:23.129Z,13.20
2019-02-08T07:44:13.005Z,14.40
2019-02-08T07:47:04.249Z,11.43
2019-02-08T07:50:15.046Z,11.87
2019-02-08T07:53:07.990Z,11.67
2019-02-08T07:55:47.673Z,12.07
2019-02-08T07:58:39.477Z,11.27
2019-02-08T08:01:28.934Z,11.83
2019-02-08T08:04:21.964Z,11.60
2019-02-08T08:07:14.750Z,11.90
2019-02-08T08:10:14.734Z,10.93
2019-02-08T08:13:07.056Z,11.50
2019-02-08T08:16:30.351Z,9.73
2019-02-08T08:19:25.802Z,10.07
2019-02-08T08:22:40.489Z,10.20
2019-02-08T08:25:33.925Z,9.93
2019-02-08T08:28:33.451Z,10.47
2019-02-08T08:31:19.162Z,10.07
2019-02-08T08:34:05.585Z,11.00
2019-02-08T08:37:17.210Z,10.33
2019-02-08T08:41:01.370Z,11.23
2019-02-08T08:44:01.819Z,9.87
2019-02-08T08:47:40.915Z,10.90
2019-02-08T08:50:48.262Z,10.60
2019-02-08T08:54:32.567Z,8.87
2019-02-08T08:57:40.486Z,8.97
2019-02-08T09:00:42.565Z,9.80
2019-02-08T09:03:59.265Z,9.60
2019-02-08T09:07:03.568Z,9.23
2019-02-08T09:10:15.775Z,10.33
2019-02-08T09:13:38.178Z,9.43
2019-02-08T09:16:49.122Z,8.67
2019-02-08T09:19:52.950Z,9.00
2019-02-08T09:23:13.789Z,9.90
2019-02-08T09:26:24.883Z,9.37
2019-02-08T09:29:33.245Z,9.10
2019-02-08T09:32:59.545Z,8.67
2019-02-08T09:36:13.656Z,7.00
2019-02-08T09:39:49.497Z,7.47
2019-02-08T09:43:06.850Z,7.63
2019-02-08T09:46:01.637Z,7.47
2019-02-08T09:49:06.399Z,8.00
2019-02-08T09:52:12.068Z,8.70
2019-02-08T09:55:16.072Z,8.50
2019-02-08T09:58:38.572Z,8.60
2019-02-08T10:01:44.446Z,7.80
2019-02-08T10:05:18.131Z,8.00
2019-02-08T10:08:51.867Z,7.67
2019-02-08T10:12:19.281Z,7.73
2019-02-08T10:15:43.800Z,7.33
2019-02-08T10:18:52.977Z,8.00
2019-02-08T10:22:33.164Z,8.30
2019-02-08T10:25:42.419Z,8.03
2019-02-08T10:28:56.602Z,8.53
2019-02-08T10:32:06.296Z,7.87
2019-02-08T10:35:22.291Z,7.70
2019-02-08T10:38:50.854Z,7.83
2019-02-08T10:41:59.538Z,8.13
2019-02-08T10:45:16.881Z,7.20
2019-02-08T10:48:55.096Z,8.07
2019-02-08T10:52:13.293Z,7.27
2019-02-08T10:55:29.427Z,6.33
2019-02-08T10:58:54.128Z,5.97
2019-02-08T11:02:34.690Z,6.50
2019-02-08T11:05:56.461Z,7.33
2019-02-08T11:09:09.769Z,5.90
2019-02-08T11:12:22.299Z,5.60
2019-02-08T11:15:30.049Z,6.77
2019-02-08T11:19:10.111Z,5.97
2019-02-08T11:21:44.471Z,6.00
2019-02-08T11:24:28.080Z,4.97
2019-02-08T11:27:03.029Z,5.50
2019-02-08T11:29:37.358Z,3.70
2019-02-08T11:32:09.283Z,5.10
2019-02-08T11:34:40.179Z,4.03
2019-02-08T11:37:17.295Z,4.50
2019-02-08T11:39:50.149Z,4.43
2019-02-08T11:42:23.547Z,4.50
2019-02-08T11:45:13.752Z,4.23
2019-02-08T11:47:45.621Z,4.30
2019-02-08T11:50:18.280Z,4.37
2019-02-08T11:52:49.854Z,4.60
2019-02-08T11:55:22.191Z,3.67
2019-02-08T11:57:56.779Z,3.63
2019-02-08T12:00:50.214Z,4.40
2019-02-08T12:03:21.110Z,3.60
2019-02-08T12:05:52.359Z,3.60
2019-02-08T12:08:22.990Z,3.50
2019-02-08T12:10:54.439Z,3.60
2019-02-08T12:13:25.039Z,3.43
2019-02-08T12:15:56.060Z,4.40
2019-02-08T12:18:26.955Z,3.50
2019-02-08T12:20:57.855Z,4.00
2019-02-08T12:23:28.623Z,4.00
2019-02-08T12:26:05.557Z,3.50
2019-02-08T12:28:36.719Z,3.43
2019-02-08T12:31:08.475Z,3.10
2019-02-08T12:33:40.717Z,3.27
2019-02-08T12:36:14.479Z,3.70
2019-02-08T12:38:49.715Z,3.17
2019-02-08T12:41:22.578Z,2.73
2019-02-08T12:43:54.814Z,2.97
2019-02-08T12:46:29.902Z,2.50
2019-02-08T12:49:03.694Z,3.07
2019-02-08T12:51:40.250Z,2.80
2019-02-08T12:54:12.424Z,2.80
2019-02-08T12:56:46.111Z,2.53
2019-02-08T12:59:17.784Z,2.30
2019-02-08T13:01:51.813Z,1.77
2019-02-08T13:04:24.611Z,2.27
2019-02-08T13:06:58.383Z,2.00
2019-02-08T13:09:29.922Z,2.47
2019-02-08T13:12:01.940Z,1.90
2019-02-08T13:14:32.992Z,2.00
2019-02-08T13:17:19.340Z,2.43
2019-02-08T13:19:50.081Z,1.93
2019-02-08T13:22:23.103Z,2.60
2019-02-08T13:25:07.876Z,2.53
2019-02-08T13:27:39.422Z,2.33
2019-02-08T13:30:24.231Z,2.40
2019-02-08T13:32:55.689Z,2.00
2019-02-08T13:35:28.008Z,2.40
2019-02-08T13:38:01.400Z,1.73
2019-02-08T13:40:34.082Z,2.37
2019-02-08T13:43:04.888Z,1.57
2019-02-08T13:45:36.778Z,1.87
2019-02-08T13:48:16.075Z,1.87
2019-02-08T13:50:46.948Z,2.00
2019-02-08T13:53:18.227Z,1.87
2019-02-08T13:56:07.856Z,1.77
2019-02-08T13:58:47.414Z,1.97
2019-02-08T14:01:18.056Z,2.00
2019-02-08T14:03:51.329Z,1.83
2019-02-08T14:06:23.278Z,1.93
2019-02-08T14:08:53.935Z,2.13
2019-02-08T14:11:24.874Z,2.20
2019-02-08T14:14:10.995Z,1.83
2019-02-08T14:16:42.412Z,1.70
2019-02-08T14:19:12.987Z,2.47
2019-02-08T14:21:44.164Z,1.80
2019-02-08T14:24:17.663Z,4.50
2019-02-08T14:27:08.223Z,5.60
2019-02-08T14:29:35.826Z,5.83
2019-02-08T14:32:18.218Z,5.50
2019-02-08T14:34:51.553Z,7.80
2019-02-08T14:37:23.297Z,4.47
2019-02-08T14:39:55.525Z,2.07
2019-02-08T14:42:30.146Z,2.07
2019-02-08T14:45:03.216Z,2.80
2019-02-08T14:47:36.751Z,4.70
2019-02-08T14:50:08.015Z,6.20
2019-02-08T14:52:41.107Z,7.13
2019-02-08T14:55:12.024Z,7.40
2019-02-08T14:57:45.252Z,9.70
2019-02-08T15:00:19.004Z,9.63
2019-02-08T15:02:51.435Z,10.93
2019-02-08T15:05:30.857Z,10.80
2019-02-08T15:08:01.851Z,10.00
2019-02-08T15:10:35.623Z,9.57
2019-02-08T15:13:18.916Z,10.90
2019-02-08T15:15:50.266Z,11.23
2019-02-08T15:18:20.873Z,11.20
2019-02-08T15:20:51.480Z,13.33
2019-02-08T15:23:23.499Z,12.00
2019-02-08T15:26:08.802Z,12.67
2019-02-08T15:28:39.601Z,13.33
2019-02-08T15:31:10.339Z,11.73
2019-02-08T15:33:41.538Z,12.47
2019-02-08T15:36:14.382Z,13.10
2019-02-08T15:38:46.931Z,13.20
2019-02-08T15:41:19.761Z,12.93
2019-02-08T15:43:51.594Z,13.67
2019-02-08T15:46:23.504Z,13.33
2019-02-08T15:48:56.335Z,14.40
2019-02-08T15:51:27.655Z,12.67
2019-02-08T15:53:59.620Z,12.53
2019-02-08T15:56:31.894Z,13.60
2019-02-08T15:59:04.330Z,14.10
2019-02-08T16:01:37.003Z,17.27
2019-02-08T16:04:07.876Z,20.13
2019-02-08T16:06:54.128Z,21.30
2019-02-08T16:09:28.214Z,22.40
2019-02-08T16:12:03.358Z,24.40
2019-02-08T16:14:37.423Z,23.77
2019-02-08T16:17:10.727Z,25.63
2019-02-08T16:19:59.872Z,25.10
2019-02-08T16:22:44.953Z,26.20
2019-02-08T16:25:16.561Z,26.13
2019-02-08T16:27:48.885Z,26.40
2019-02-08T16:30:25.761Z,27.40
2019-02-08T16:33:03.432Z,30.63
2019-02-08T16:35:36.596Z,38.17
2019-02-08T16:38:08.598Z,33.53
2019-02-08T16:40:42.147Z,30.37
2019-02-08T16:43:12.873Z,30.27
2019-02-08T16:45:44.095Z,27.40
2019-02-08T16:48:15.806Z,28.20
2019-02-08T16:50:49.824Z,27.47
2019-02-08T16:53:24.514Z,29.23
2019-02-08T16:55:59.638Z,29.17
2019-02-08T16:58:31.035Z,28.73
2019-02-08T17:01:01.949Z,27.90
2019-02-08T17:03:33.004Z,26.70
2019-02-08T17:06:05.627Z,27.50
2019-02-08T17:08:36.798Z,29.13
2019-02-08T17:11:10.636Z,28.17
2019-02-08T17:13:43.772Z,26.53
2019-02-08T17:16:18.634Z,27.93
2019-02-08T17:18:50.792Z,27.13
2019-02-08T17:21:21.878Z,27.67
2019-02-08T17:23:52.877Z,28.40
2019-02-08T17:26:29.935Z,29.30
2019-02-08T17:29:01.355Z,27.03
2019-02-08T17:31:31.999Z,27.97
2019-02-08T17:34:03.833Z,28.43
2019-02-08T17:36:36.937Z,28.03
2019-02-08T17:39:26.210Z,26.90
2019-02-08T17:42:15.204Z,25.93
2019-02-08T17:44:45.835Z,26.67
2019-02-08T17:47:16.292Z,25.53
2019-02-08T17:49:50.095Z,27.63
2019-02-08T17:52:33.742Z,26.53
2019-02-08T17:55:05.451Z,26.27
2019-02-08T17:57:38.829Z,26.40
2019-02-08T18:00:19.890Z,27.20
2019-02-08T18:02:54.098Z,28.20
2019-02-08T18:05:29.387Z,26.60
2019-02-08T18:08:18.874Z,25.90
2019-02-08T18:11:08.564Z,27.97
2019-02-08T18:13:53.193Z,26.67
2019-02-08T18:16:24.961Z,39.27
2019-02-08T18:18:58.312Z,59.40
2019-02-08T18:21:31.039Z,46.73
2019-02-08T18:24:05.213Z,31.23
2019-02-08T18:26:38.622Z,26.50
2019-02-08T18:29:10.134Z,27.83
2019-02-08T18:31:49.946Z,27.07
2019-02-08T18:34:21.367Z,27.17
2019-02-08T18:36:54.300Z,29.20
2019-02-08T18:39:26.449Z,25.37
2019-02-08T18:41:57.191Z,25.87
2019-02-08T18:44:29.717Z,27.20
2019-02-08T18:47:03.577Z,25.47
2019-02-08T18:49:36.256Z,27.80
2019-02-08T18:52:08.148Z,27.60
2019-02-08T18:54:38.775Z,28.03
2019-02-08T18:57:10.485Z,28.30
2019-02-08T18:59:45.572Z,28.60
2019-02-08T19:02:18.549Z,30.50
2019-02-08T19:05:08.230Z,28.27
2019-02-08T19:07:40.562Z,29.20
2019-02-08T19:10:14.635Z,28.57
2019-02-08T19:12:50.034Z,29.93
2019-02-08T19:15:27.392Z,27.87
2019-02-08T19:18:06.817Z,27.90
2019-02-08T19:20:37.331Z,26.60
2019-02-08T19:23:09.526Z,27.23
2019-02-08T19:25:42.659Z,28.67
2019-02-08T19:28:15.506Z,28.17
2019-02-08T19:30:47.211Z,28.30
2019-02-08T19:33:24.554Z,29.53
2019-02-08T19:35:57.083Z,28.43
2019-02-08T19:38:28.149Z,29.43
2019-02-08T19:40:59.112Z,27.27
2019-02-08T19:43:30.313Z,27.97
2019-02-08T19:46:01.368Z,28.77
2019-02-08T19:48:32.015Z,29.53
2019-02-08T19:51:02.539Z,27.43
2019-02-08T19:53:33.430Z,29.10
2019-02-08T19:56:04.839Z,28.43
2019-02-08T19:58:35.519Z,28.67
2019-02-08T20:01:07.817Z,28.20
2019-02-08T20:03:44.258Z,28.87
2019-02-08T20:06:16.920Z,30.07
2019-02-08T20:08:50.159Z,30.23
2019-02-08T20:11:23.868Z,29.80
2019-02-08T20:13:54.825Z,29.77
2019-02-08T20:16:25.935Z,28.80
2019-02-08T20:18:58.498Z,30.57
2019-02-08T20:21:29.429Z,29.23
2019-02-08T20:24:00.189Z,30.97
2019-02-08T20:26:30.833Z,30.53
2019-02-08T20:29:02.230Z,31.77
2019-02-08T20:31:33.013Z,31.60
2019-02-08T20:34:03.977Z,32.30
2019-02-08T20:36:34.713Z,33.70
2019-02-08T20:39:08.659Z,34.43
2019-02-08T20:41:41.012Z,34.07
2019-02-08T20:44:14.071Z,32.60
2019-02-08T20:46:44.947Z,34.20
2019-02-08T20:49:30.877Z,32.63
2019-02-08T20:52:01.996Z,32.10
2019-02-08T20:54:35.087Z,33.70
2019-02-08T20:57:06.995Z,35.50
2019-02-08T20:59:37.768Z,32.60
2019-02-08T21:02:10.155Z,38.20
2019-02-08T21:04:42.640Z,35.07
2019-02-08T21:07:31.891Z,35.80
2019-02-08T21:10:03.694Z,35.80
2019-02-08T21:12:34.279Z,35.73
2019-02-08T21:15:05.415Z,37.70
2019-02-08T21:17:35.998Z,37.80
2019-02-08T21:20:07.211Z,37.60
2019-02-08T21:22:37.704Z,36.97
2019-02-08T21:25:11.106Z,37.60
2019-02-08T21:27:44.154Z,36.27
2019-02-08T21:30:20.119Z,39.80
2019-02-08T21:32:50.995Z,39.60
2019-02-08T21:35:22.126Z,37.87
2019-02-08T21:37:53.278Z,37.43
2019-02-08T21:40:27.622Z,37.67
2019-02-08T21:42:58.335Z,36.13
2019-02-08T21:45:33.524Z,39.03
2019-02-08T21:48:08.666Z,37.80
2019-02-08T21:50:52.019Z,37.07
2019-02-08T21:53:24.209Z,39.77
2019-02-08T21:55:57.160Z,36.80
2019-02-08T21:58:28.214Z,41.77
2019-02-08T22:01:00.793Z,36.93
2019-02-08T22:03:33.361Z,38.57
2019-02-08T22:06:08.582Z,37.50
2019-02-08T22:08:51.467Z,40.10
2019-02-08T22:11:25.269Z,37.83
2019-02-08T22:14:00.666Z,40.43
2019-02-08T22:16:33.376Z,38.40
2019-02-08T22:19:14.124Z,40.60
2019-02-08T22:21:49.338Z,39.27
2019-02-08T22:24:21.124Z,40.50
2019-02-08T22:26:54.526Z,40.63
2019-02-08T22:29:25.338Z,39.87
2019-02-08T22:32:04.218Z,41.33
2019-02-08T22:34:36.302Z,38.97
2019-02-08T22:37:07.409Z,40.03
2019-02-08T22:39:40.685Z,42.30
2019-02-08T22:42:13.372Z,41.63
2019-02-08T22:44:52.195Z,42.10
2019-02-08T22:47:24.249Z,41.70
2019-02-08T22:49:58.382Z,43.10
2019-02-08T22:52:31.284Z,42.30
2019-02-08T22:55:03.199Z,40.50
2019-02-08T22:57:35.452Z,41.90
2019-02-08T23:00:43.843Z,41.80
2019-02-08T23:03:14.676Z,41.07
2019-02-08T23:05:48.897Z,41.80
2019-02-08T23:08:19.352Z,38.97
2019-02-08T23:10:50.367Z,39.50
2019-02-08T23:13:21.574Z,40.83
2019-02-08T23:15:53.035Z,39.20
2019-02-08T23:18:25.478Z,40.17
2019-02-08T23:20:57.833Z,42.43
2019-02-08T23:23:31.316Z,39.40
2019-02-08T23:26:23.074Z,40.77
2019-02-08T23:29:06.742Z,37.80
2019-02-08T23:31:37.539Z,40.07
2019-02-08T23:34:10.593Z,41.77
2019-02-08T23:36:45.543Z,39.70
2019-02-08T23:39:18.176Z,38.90
2019-02-08T23:41:52.575Z,39.57
2019-02-08T23:44:26.525Z,38.30
2019-02-08T23:46:58.901Z,39.03
2019-02-08T23:49:32.400Z,38.40
2019-02-08T23:52:17.517Z,37.57
2019-02-08T23:54:50.797Z,37.30
2019-02-08T23:57:39.912Z,40.53
